Time;durP1;ratioP1;P1;durP2;ratioP2;P2;SDS_P1;SDS_P2;PMS_P1;PMS_P2;Temp;Humidity;BMP_temperature;BMP_pressure;BME280_temperature;BME280_humidity;BME280_pressure;Samples;Min_cycle;Max_cycle;Signal;HPM_P1;HPM_P2
2023/12/11 00:00:21;;;;;;;;;;;;;;;;;;5098264;28;19908;-80
2023/12/11 00:02:46;;;;;;;;;;;;;;;;;;5097833;28;20006;-79
2023/12/11 00:05:11;;;;;;;;;;;;;;;;;;5099414;28;19908;-80
2023/12/11 00:07:36;;;;;;;;;;;;;;;;;;5098413;28;19908;-79
2023/12/11 00:10:01;;;;;;;;;;;;;;;;;;5099237;28;19993;-80
2023/12/11 00:12:26;;;;;;;;;;;;;;;;;;5098373;28;19970;-79
2023/12/11 00:14:51;;;;;;;;;;;;;;;;;;5099131;28;19908;-80
2023/12/11 00:17:17;;;;;;;;;;;;;;;;;;5099818;28;19913;-79
2023/12/11 00:19:42;;;;;;;;;;;;;;;;;;5099459;28;19912;-79
2023/12/11 00:22:07;;;;;;;;;;;;;;;;;;5097680;28;19912;-80
2023/12/11 00:24:32;;;;;;;;;;;;;;;;;;5099755;28;19908;-78
2023/12/11 00:26:57;;;;;;;;;;;;;;;;;;5099850;28;19909;-79
2023/12/11 00:29:22;;;;;;;;;;;;;;;;;;5097510;28;19916;-80
2023/12/11 00:31:47;;;;;;;;;;;;;;;;;;5097047;28;19908;-80
2023/12/11 00:34:13;;;;;;;;;;;;;;;;;;5097328;28;19991;-79
2023/12/11 00:36:38;;;;;;;;;;;;;;;;;;5098529;28;19912;-80
2023/12/11 00:39:03;;;;;;;;;;;;;;;;;;5096809;28;19975;-79
2023/12/11 00:41:28;;;;;;;;;;;;;;;;;;5097347;28;19915;-80
2023/12/11 00:43:54;;;;;;;;;;;;;;;;;;5097132;28;19916;-80
2023/12/11 00:46:19;;;;;;;;;;;;;;;;;;5097016;28;19947;-80
2023/12/11 00:48:44;;;;;;;;;;;;;;;;;;5096554;28;19936;-79
2023/12/11 00:51:09;;;;;;;;;;;;;;;;;;5096646;28;20391;-80
2023/12/11 00:53:35;;;;;;;;;;;;;;;;;;5096639;28;19919;-79
2023/12/11 00:56:00;;;;;;;;;;;;;;;;;;5097655;28;19965;-79
2023/12/11 00:58:25;;;;;;;;;;;;;;;;;;5097475;28;19995;-80
2023/12/11 01:00:50;;;;;;;;;;;;;;;;;;5097076;28;20258;-79
2023/12/11 01:03:15;;;;;;;;;;;;;;;;;;5095794;28;20451;-80
2023/12/11 01:05:41;;;;;;;;;;;;;;;;;;5097599;28;19908;-79
2023/12/11 01:08:07;;;;;;;;;;;;;;;;;;5096141;28;19912;-78
2023/12/11 01:10:32;;;;;;;;;;;;;;;;;;5095165;28;19915;-79
2023/12/11 01:12:57;;;;;;;;;;;;;;;;;;5096794;28;19908;-79
2023/12/11 01:15:23;;;;;;;;;;;;;;;;;;5096475;28;19912;-80
2023/12/11 01:17:48;;;;;;;;;;;;;;;;;;5095597;28;20389;-79
2023/12/11 01:20:13;;;;;;;;;;;;;;;;;;5096644;28;19908;-78
2023/12/11 01:22:38;;;;;;;;;;;;;;;;;;5095197;28;19908;-79
2023/12/11 01:25:03;;;;;;;;;;;;;;;;;;5095118;28;19908;-79
2023/12/11 01:27:28;;;;;;;;;;;;;;;;;;5096686;28;19912;-79
2023/12/11 01:29:53;;;;;;;;;;;;;;;;;;5095198;28;20451;-79
2023/12/11 01:32:19;;;;;;;;;;;;;;;;;;5094976;28;19908;-80
2023/12/11 01:34:44;;;;;;;;;;;;;;;;;;5095133;28;19940;-79
2023/12/11 01:37:09;;;;;;;;;;;;;;;;;;5096524;28;19924;-78
2023/12/11 01:39:34;;;;;;;;;;;;;;;;;;5096427;28;19912;-79
2023/12/11 01:41:59;;;;;;;;;;;;;;;;;;5096171;28;19995;-79
2023/12/11 01:44:24;;;;;;;;;;;;;;;;;;5096350;28;19954;-79
2023/12/11 01:46:50;;;;;;;;;;;;;;;;;;5094761;28;19909;-79
2023/12/11 01:49:15;;;;;;;;;;;;;;;;;;5094864;28;19915;-79
2023/12/11 01:51:41;;;;;;;;;;;;;;;;;;5094154;28;19912;-80
2023/12/11 01:54:06;;;;;;;;;;;;;;;;;;5095965;28;20348;-79
2023/12/11 01:56:31;;;;;;;;;;;;;;;;;;5095960;28;20266;-80
2023/12/11 01:58:57;;;;;;;;;;;;;;;;;;5095363;28;19908;-79
2023/12/11 02:01:23;;;;;;;;;;;;;;;;;;5096157;28;19909;-80
2023/12/11 02:03:48;;;;;;;;;;;;;;;;;;5096345;28;19908;-79
2023/12/11 02:06:13;;;;;;;;;;;;;;;;;;5096180;28;19934;-79
2023/12/11 02:08:38;;;;;;;;;;;;;;;;;;5094737;28;19956;-79
2023/12/11 02:11:03;;;;;;;;;;;;;;;;;;5094816;28;20281;-79
2023/12/11 02:13:28;;;;;;;;;;;;;;;;;;5096195;28;20376;-79
2023/12/11 02:15:54;;;;;;;;;;;;;;;;;;5094060;28;20377;-79
2023/12/11 02:18:19;;;;;;;;;;;;;;;;;;5094795;28;19908;-79
2023/12/11 02:20:44;;;;;;;;;;;;;;;;;;5095004;28;20339;-79
2023/12/11 02:23:09;;;;;;;;;;;;;;;;;;5094797;28;19908;-79
2023/12/11 02:25:35;;;;;;;;;;;;;;;;;;5096216;28;19908;-78
2023/12/11 02:28:00;;;;;;;;;;;;;;;;;;5095129;28;19990;-79
2023/12/11 02:30:25;;;;;;;;;;;;;;;;;;5095567;28;19908;-79
2023/12/11 02:32:50;;;;;;;;;;;;;;;;;;5095534;28;19908;-79
2023/12/11 02:35:15;;;;;;;;;;;;;;;;;;5094681;28;19962;-79
2023/12/11 02:37:40;;;;;;;;;;;;;;;;;;5094057;28;19950;-79
2023/12/11 02:40:05;;;;;;;;;;;;;;;;;;5094800;28;19969;-79
2023/12/11 02:42:30;;;;;;;;;;;;;;;;;;5093572;28;20314;-80
2023/12/11 02:44:56;;;;;;;;;;;;;;;;;;5093342;28;19912;-79
2023/12/11 02:47:21;;;;;;;;;;;;;;;;;;5093627;28;19908;-79
2023/12/11 02:49:46;;;;;;;;;;;;;;;;;;5093400;28;20444;-78
2023/12/11 02:52:11;;;;;;;;;;;;;;;;;;5093487;28;20437;-80
2023/12/11 02:54:36;;;;;;;;;;;;;;;;;;5093474;28;20464;-79
2023/12/11 02:57:01;;;;;;;;;;;;;;;;;;5093337;28;20309;-79
2023/12/11 02:59:26;;;;;;;;;;;;;;;;;;5093316;28;19912;-79
2023/12/11 03:01:51;;;;;;;;;;;;;;;;;;5093256;28;19908;-79
2023/12/11 03:04:16;;;;;;;;;;;;;;;;;;5094829;28;19912;-80
2023/12/11 03:06:42;;;;;;;;;;;;;;;;;;5094439;28;19918;-79
2023/12/11 03:09:07;;;;;;;;;;;;;;;;;;5094069;28;20002;-79
2023/12/11 03:11:33;;;;;;;;;;;;;;;;;;5094144;28;19947;-79
2023/12/11 03:13:58;;;;;;;;;;;;;;;;;;5093164;28;19908;-79
2023/12/11 03:16:23;;;;;;;;;;;;;;;;;;5093400;28;19912;-79
2023/12/11 03:18:48;;;;;;;;;;;;;;;;;;5092824;28;19955;-79
2023/12/11 03:21:13;;;;;;;;;;;;;;;;;;5092590;28;19943;-79
2023/12/11 03:23:38;;;;;;;;;;;;;;;;;;5093961;28;19940;-79
2023/12/11 03:26:03;;;;;;;;;;;;;;;;;;5093149;28;19923;-79
2023/12/11 03:28:28;;;;;;;;;;;;;;;;;;5093656;28;19915;-80
2023/12/11 03:30:54;;;;;;;;;;;;;;;;;;5100485;28;19908;-82
2023/12/11 03:33:19;;;;;;;;;;;;;;;;;;5100540;28;20322;-81
2023/12/11 03:35:44;;;;;;;;;;;;;;;;;;5102043;28;19975;-82
2023/12/11 03:38:09;;;;;;;;;;;;;;;;;;5100792;28;20369;-81
2023/12/11 03:40:34;;;;;;;;;;;;;;;;;;5100990;28;19912;-82
2023/12/11 03:42:59;;;;;;;;;;;;;;;;;;5101974;28;19931;-82
2023/12/11 03:45:24;;;;;;;;;;;;;;;;;;5100903;28;19908;-82
2023/12/11 03:47:49;;;;;;;;;;;;;;;;;;5101747;28;19991;-81
2023/12/11 03:50:14;;;;;;;;;;;;;;;;;;5101421;28;19908;-81
2023/12/11 03:52:40;;;;;;;;;;;;;;;;;;5099465;28;19916;-80
2023/12/11 03:55:05;;;;;;;;;;;;;;;;;;5098813;28;20082;-80
2023/12/11 03:57:30;;;;;;;;;;;;;;;;;;5098587;28;19969;-81
2023/12/11 03:59:55;;;;;;;;;;;;;;;;;;5099609;28;19930;-81
2023/12/11 04:02:20;;;;;;;;;;;;;;;;;;5098807;28;19915;-81
2023/12/11 04:04:45;;;;;;;;;;;;;;;;;;5100812;28;19937;-82
2023/12/11 04:07:10;;;;;;;;;;;;;;;;;;5100079;28;19908;-82
2023/12/11 04:09:36;;;;;;;;;;;;;;;;;;5100568;28;20002;-81
2023/12/11 04:12:01;;;;;;;;;;;;;;;;;;5100252;28;19911;-81
2023/12/11 04:14:26;;;;;;;;;;;;;;;;;;5100767;28;19977;-80
2023/12/11 04:16:51;;;;;;;;;;;;;;;;;;5100439;28;19934;-82
2023/12/11 04:19:16;;;;;;;;;;;;;;;;;;5100409;28;19912;-81
2023/12/11 04:21:41;;;;;;;;;;;;;;;;;;5100811;28;19908;-82
2023/12/11 04:24:07;;;;;;;;;;;;;;;;;;5095285;28;20350;-81
2023/12/11 04:26:32;;;;;;;;;;;;;;;;;;5096095;28;19953;-81
2023/12/11 04:28:57;;;;;;;;;;;;;;;;;;5100700;28;19934;-81
2023/12/11 04:31:23;;;;;;;;;;;;;;;;;;5100005;28;19963;-81
2023/12/11 04:33:48;;;;;;;;;;;;;;;;;;5098724;28;19916;-81
2023/12/11 04:36:13;;;;;;;;;;;;;;;;;;5099998;28;20493;-82
2023/12/11 04:38:38;;;;;;;;;;;;;;;;;;5103018;28;19908;-81
2023/12/11 04:41:03;;;;;;;;;;;;;;;;;;5105145;28;20273;-81
2023/12/11 04:43:29;;;;;;;;;;;;;;;;;;5103402;28;19948;-81
2023/12/11 04:45:54;;;;;;;;;;;;;;;;;;5103950;28;19908;-82
2023/12/11 04:48:19;;;;;;;;;;;;;;;;;;5103565;28;19943;-81
2023/12/11 04:50:44;;;;;;;;;;;;;;;;;;5104348;28;19908;-81
2023/12/11 04:53:09;;;;;;;;;;;;;;;;;;5102872;28;19916;-80
2023/12/11 04:55:34;;;;;;;;;;;;;;;;;;5102869;28;19912;-81
2023/12/11 04:57:59;;;;;;;;;;;;;;;;;;5104755;28;19908;-81
2023/12/11 05:00:24;;;;;;;;;;;;;;;;;;5103533;28;19909;-81
2023/12/11 05:02:49;;;;;;;;;;;;;;;;;;5104657;28;19909;-81
2023/12/11 05:05:16;;;;;;;;;;;;;;;;;;5103190;28;19979;-82
2023/12/11 05:07:41;;;;;;;;;;;;;;;;;;5103162;28;19915;-81
2023/12/11 05:10:07;;;;;;;;;;;;;;;;;;5102340;28;19909;-82
2023/12/11 05:12:32;;;;;;;;;;;;;;;;;;5102966;28;19973;-81
2023/12/11 05:14:57;;;;;;;;;;;;;;;;;;5095031;28;19916;-82
2023/12/11 05:17:22;;;;;;;;;;;;;;;;;;5102035;28;19919;-81
2023/12/11 05:19:47;;;;;;;;;;;;;;;;;;5104009;28;19916;-81
2023/12/11 05:22:12;;;;;;;;;;;;;;;;;;5102848;28;19915;-82
2023/12/11 05:24:37;;;;;;;;;;;;;;;;;;5101590;28;19908;-82
2023/12/11 05:27:02;;;;;;;;;;;;;;;;;;5101755;28;19942;-81
2023/12/11 05:29:28;;;;;;;;;;;;;;;;;;5101687;28;20288;-81
2023/12/11 05:31:53;;;;;;;;;;;;;;;;;;5101433;28;20258;-82
2023/12/11 05:34:18;;;;;;;;;;;;;;;;;;5103004;28;19935;-80
2023/12/11 05:36:43;;;;;;;;;;;;;;;;;;5101252;28;19912;-81
2023/12/11 05:39:08;;;;;;;;;;;;;;;;;;5101457;28;20285;-81
2023/12/11 05:41:33;;;;;;;;;;;;;;;;;;5101615;28;19912;-81
2023/12/11 05:43:59;;;;;;;;;;;;;;;;;;5102003;28;19912;-82
2023/12/11 05:46:24;;;;;;;;;;;;;;;;;;5103452;28;19922;-80
2023/12/11 05:48:49;;;;;;;;;;;;;;;;;;5101428;28;19962;-81
2023/12/11 05:51:14;;;;;;;;;;;;;;;;;;5101418;28;19908;-81
2023/12/11 05:53:39;;;;;;;;;;;;;;;;;;5102643;28;20014;-81
2023/12/11 05:56:04;;;;;;;;;;;;;;;;;;5102512;28;19912;-81
2023/12/11 05:58:29;;;;;;;;;;;;;;;;;;5100639;28;19908;-82
2023/12/11 06:00:54;;;;;;;;;;;;;;;;;;5102140;28;20237;-80
2023/12/11 06:03:19;;;;;;;;;;;;;;;;;;5101858;28;19908;-82
2023/12/11 06:05:45;;;;;;;;;;;;;;;;;;5101545;28;19964;-81
2023/12/11 06:08:10;;;;;;;;;;;;;;;;;;5100949;28;19998;-81
2023/12/11 06:10:35;;;;;;;;;;;;;;;;;;5101838;28;19909;-81
2023/12/11 06:13:00;;;;;;;;;;;;;;;;;;5100733;28;19908;-81
2023/12/11 06:15:25;;;;;;;;;;;;;;;;;;5102733;28;19908;-82
2023/12/11 06:17:50;;;;;;;;;;;;;;;;;;5100301;28;19908;-80
2023/12/11 06:20:15;;;;;;;;;;;;;;;;;;5101716;28;19980;-82
2023/12/11 06:22:40;;;;;;;;;;;;;;;;;;5102670;28;19989;-81
2023/12/11 06:25:06;;;;;;;;;;;;;;;;;;5102308;28;19915;-82
2023/12/11 06:27:31;;;;;;;;;;;;;;;;;;5102307;28;19908;-80
2023/12/11 06:29:56;;;;;;;;;;;;;;;;;;5102138;28;19908;-82
2023/12/11 06:32:21;;;;;;;;;;;;;;;;;;5101988;28;19914;-80
2023/12/11 06:34:46;;;;;;;;;;;;;;;;;;5101210;28;19908;-81
2023/12/11 06:37:11;;;;;;;;;;;;;;;;;;5100156;28;20266;-81
2023/12/11 06:39:36;;;;;;;;;;;;;;;;;;5102630;28;20388;-82
2023/12/11 06:42:01;;;;;;;;;;;;;;;;;;5101398;28;19914;-80
2023/12/11 06:44:26;;;;;;;;;;;;;;;;;;5100161;28;19912;-81
2023/12/11 06:46:52;;;;;;;;;;;;;;;;;;5102041;28;19930;-80
2023/12/11 06:49:17;;;;;;;;;;;;;;;;;;5101773;28;19934;-80
2023/12/11 06:51:43;;;;;;;;;;;;;;;;;;5099267;28;19991;-81
2023/12/11 06:54:08;;;;;;;;;;;;;;;;;;5098948;28;19992;-81
2023/12/11 06:56:33;;;;;;;;;;;;;;;;;;5098634;28;19912;-82
2023/12/11 06:58:58;;;;;;;;;;;;;;;;;;5099671;28;20007;-81
2023/12/11 07:01:23;;;;;;;;;;;;;;;;;;5099001;28;19977;-81
2023/12/11 07:03:49;;;;;;;;;;;;;;;;;;5097237;28;19968;-80
2023/12/11 07:06:14;;;;;;;;;;;;;;;;;;5090204;28;20016;-81
2023/12/11 07:08:39;;;;;;;;;;;;;;;;;;5098550;28;19961;-80
2023/12/11 07:11:04;;;;;;;;;;;;;;;;;;5100088;28;19998;-80
2023/12/11 07:13:29;;;;;;;;;;;;;;;;;;5100420;28;19962;-80
2023/12/11 07:15:54;;;;;;;;;;;;;;;;;;5099795;28;19920;-80
2023/12/11 07:18:20;;;;;;;;;;;;;;;;;;5100435;28;19908;-80
2023/12/11 07:20:45;;;;;;;;;;;;;;;;;;5098335;28;19940;-80
2023/12/11 07:23:10;;;;;;;;;;;;;;;;;;5099052;28;19908;-80
2023/12/11 07:25:35;;;;;;;;;;;;;;;;;;5099656;28;19908;-80
2023/12/11 07:28:01;;;;;;;;;;;;;;;;;;5099166;28;19909;-80
2023/12/11 07:30:27;;;;;;;;;;;;;;;;;;5098193;28;19908;-80
2023/12/11 07:32:52;;;;;;;;;;;;;;;;;;5098044;28;20180;-81
2023/12/11 07:35:17;;;;;;;;;;;;;;;;;;5092214;28;19934;-81
2023/12/11 07:37:42;;;;;;;;;;;;;;;;;;5094507;28;19908;-81
2023/12/11 07:40:07;;;;;;;;;;;;;;;;;;5097924;28;19908;-81
2023/12/11 07:42:32;;;;;;;;;;;;;;;;;;5097571;28;19908;-81
2023/12/11 07:44:57;;;;;;;;;;;;;;;;;;5099542;28;20317;-81
2023/12/11 07:47:23;;;;;;;;;;;;;;;;;;5098910;28;20407;-81
2023/12/11 07:49:48;;;;;;;;;;;;;;;;;;5097180;28;20388;-81
2023/12/11 07:52:13;;;;;;;;;;;;;;;;;;5088291;28;20006;-82
2023/12/11 07:54:38;;;;;;;;;;;;;;;;;;5098683;28;19914;-80
2023/12/11 07:57:04;;;;;;;;;;;;;;;;;;5098439;28;19912;-81
2023/12/11 07:59:29;;;;;;;;;;;;;;;;;;5096765;28;19909;-81
2023/12/11 08:01:55;;;;;;;;;;;;;;;;;;5096602;28;19937;-81
2023/12/11 08:04:20;;;;;;;;;;;;;;;;;;5096992;28;19957;-80
2023/12/11 08:06:45;;;;;;;;;;;;;;;;;;5098013;28;20417;-79
2023/12/11 08:09:11;;;;;;;;;;;;;;;;;;5096758;28;19915;-81
2023/12/11 08:11:36;;;;;;;;;;;;;;;;;;5096953;28;19947;-81
2023/12/11 08:14:01;;;;;;;;;;;;;;;;;;5102441;28;19908;-81
2023/12/11 08:16:26;;;;;;;;;;;;;;;;;;5102894;28;19919;-82
2023/12/11 08:18:51;;;;;;;;;;;;;;;;;;5100902;28;19915;-80
2023/12/11 08:21:16;;;;;;;;;;;;;;;;;;5100428;28;19924;-80
2023/12/11 08:23:43;;;;;;;;;;;;;;;;;;5101673;28;19912;-80
2023/12/11 08:26:09;;;;;;;;;;;;;;;;;;5101617;28;20354;-81
2023/12/11 08:28:34;;;;;;;;;;;;;;;;;;5101944;28;19908;-80
2023/12/11 08:30:59;;;;;;;;;;;;;;;;;;5099812;28;19930;-80
2023/12/11 08:33:24;;;;;;;;;;;;;;;;;;5099806;28;19915;-81
2023/12/11 08:35:49;;;;;;;;;;;;;;;;;;5099893;28;19912;-81
2023/12/11 08:38:14;;;;;;;;;;;;;;;;;;5100007;28;19908;-80
2023/12/11 08:40:40;;;;;;;;;;;;;;;;;;5101035;28;19908;-82
2023/12/11 08:43:05;;;;;;;;;;;;;;;;;;5100911;28;19908;-81
2023/12/11 08:45:30;;;;;;;;;;;;;;;;;;5100713;28;19908;-80
2023/12/11 08:47:55;;;;;;;;;;;;;;;;;;5100599;28;20421;-81
2023/12/11 08:50:21;;;;;;;;;;;;;;;;;;5101376;28;19909;-80
2023/12/11 08:52:46;;;;;;;;;;;;;;;;;;5101363;28;19919;-81
2023/12/11 08:55:12;;;;;;;;;;;;;;;;;;5099604;28;19916;-81
2023/12/11 08:57:37;;;;;;;;;;;;;;;;;;5099962;28;19916;-81
2023/12/11 09:00:03;;;;;;;;;;;;;;;;;;5082368;28;19915;-81
2023/12/11 09:02:28;;;;;;;;;;;;;;;;;;5101034;28;19908;-82
2023/12/11 09:04:53;;;;;;;;;;;;;;;;;;5101165;28;19908;-81
2023/12/11 09:07:18;;;;;;;;;;;;;;;;;;5093956;28;20011;-81
2023/12/11 09:09:43;;;;;;;;;;;;;;;;;;5097726;28;19930;-82
2023/12/11 09:12:08;;;;;;;;;;;;;;;;;;5099639;28;19915;-81
2023/12/11 09:14:34;;;;;;;;;;;;;;;;;;5101483;28;19908;-80
2023/12/11 09:16:59;;;;;;;;;;;;;;;;;;5100595;28;19995;-80
2023/12/11 09:19:24;;;;;;;;;;;;;;;;;;5101229;28;19908;-81
2023/12/11 09:21:49;;;;;;;;;;;;;;;;;;5101221;28;20361;-81
2023/12/11 09:24:14;;;;;;;;;;;;;;;;;;5099840;28;19955;-81
2023/12/11 09:26:39;;;;;;;;;;;;;;;;;;5101516;28;19980;-82
2023/12/11 09:29:04;;;;;;;;;;;;;;;;;;5100095;28;19994;-82
2023/12/11 09:31:30;;;;;;;;;;;;;;;;;;5099686;28;19962;-80
2023/12/11 09:33:55;;;;;;;;;;;;;;;;;;5099961;28;19938;-81
2023/12/11 09:36:20;;;;;;;;;;;;;;;;;;5101051;28;19957;-81
2023/12/11 09:38:45;;;;;;;;;;;;;;;;;;5101773;28;19915;-81
2023/12/11 09:41:10;;;;;;;;;;;;;;;;;;5096633;28;19908;-81
2023/12/11 09:43:35;;;;;;;;;;;;;;;;;;5099801;28;19908;-81
2023/12/11 09:46:01;;;;;;;;;;;;;;;;;;5103388;28;19908;-81
2023/12/11 09:48:26;;;;;;;;;;;;;;;;;;5104379;28;19997;-81
2023/12/11 09:50:51;;;;;;;;;;;;;;;;;;5102982;28;20370;-82
2023/12/11 09:53:17;;;;;;;;;;;;;;;;;;5103222;28;20282;-81
2023/12/11 09:55:43;;;;;;;;;;;;;;;;;;5101362;28;19919;-81
2023/12/11 09:58:08;;;;;;;;;;;;;;;;;;5102163;28;19946;-81
2023/12/11 10:00:33;;;;;;;;;;;;;;;;;;5101530;28;19922;-81
2023/12/11 10:03:00;;;;;;;;;;;;;;;;;;5101044;28;19908;-80
2023/12/11 10:05:25;;;;;;;;;;;;;;;;;;5098874;28;19908;-81
2023/12/11 10:07:51;;;;;;;;;;;;;;;;;;5101676;28;19912;-80
2023/12/11 10:10:16;;;;;;;;;;;;;;;;;;5099599;28;20381;-82
2023/12/11 10:12:41;;;;;;;;;;;;;;;;;;5101261;28;20037;-81
2023/12/11 10:15:06;;;;;;;;;;;;;;;;;;5099820;28;19908;-82
2023/12/11 10:17:31;;;;;;;;;;;;;;;;;;5100559;28;19912;-81
2023/12/11 10:19:56;;;;;;;;;;;;;;;;;;5101359;28;19916;-82
2023/12/11 10:22:21;;;;;;;;;;;;;;;;;;5101302;28;19923;-81
2023/12/11 10:24:46;;;;;;;;;;;;;;;;;;5100328;28;20393;-81
2023/12/11 10:27:12;;;;;;;;;;;;;;;;;;5100445;28;19940;-81
2023/12/11 10:29:37;;;;;;;;;;;;;;;;;;5101001;28;19913;-82
2023/12/11 10:32:02;;;;;;;;;;;;;;;;;;5101944;28;19909;-81
2023/12/11 10:34:27;;;;;;;;;;;;;;;;;;5102471;28;19915;-82
2023/12/11 10:36:52;;;;;;;;;;;;;;;;;;5099775;28;19927;-81
2023/12/11 10:39:19;;;;;;;;;;;;;;;;;;5102049;28;19919;-82
2023/12/11 10:41:45;;;;;;;;;;;;;;;;;;5102508;28;19949;-82
2023/12/11 10:44:10;;;;;;;;;;;;;;;;;;5101802;28;20397;-81
2023/12/11 10:46:35;;;;;;;;;;;;;;;;;;5102771;28;19908;-82
2023/12/11 10:49:00;;;;;;;;;;;;;;;;;;5101686;28;19908;-81
2023/12/11 10:51:25;;;;;;;;;;;;;;;;;;5101238;28;19912;-81
2023/12/11 10:53:51;;;;;;;;;;;;;;;;;;5102879;28;19912;-81
2023/12/11 10:56:16;;;;;;;;;;;;;;;;;;5101297;28;19979;-80
2023/12/11 10:58:41;;;;;;;;;;;;;;;;;;5096964;28;19975;-80
2023/12/11 11:01:06;;;;;;;;;;;;;;;;;;5098946;28;20371;-81
2023/12/11 11:03:32;;;;;;;;;;;;;;;;;;5098197;28;19908;-82
2023/12/11 11:05:57;;;;;;;;;;;;;;;;;;5097961;28;19912;-82
2023/12/11 11:08:22;;;;;;;;;;;;;;;;;;5099105;28;19997;-81
2023/12/11 11:10:47;;;;;;;;;;;;;;;;;;5097520;28;19908;-80
2023/12/11 11:13:12;;;;;;;;;;;;;;;;;;5099445;28;20109;-80
2023/12/11 11:15:37;;;;;;;;;;;;;;;;;;5097502;28;19912;-80
2023/12/11 11:18:03;;;;;;;;;;;;;;;;;;5097150;28;19908;-81
2023/12/11 11:20:28;;;;;;;;;;;;;;;;;;5097132;28;19920;-80
2023/12/11 11:22:53;;;;;;;;;;;;;;;;;;5099449;28;20230;-82
2023/12/11 11:25:18;;;;;;;;;;;;;;;;;;5097155;28;19946;-80
2023/12/11 11:27:43;;;;;;;;;;;;;;;;;;5096065;28;19915;-80
2023/12/11 11:30:08;;;;;;;;;;;;;;;;;;5097680;28;19908;-80
2023/12/11 11:32:33;;;;;;;;;;;;;;;;;;5095920;28;19908;-80
2023/12/11 11:34:58;;;;;;;;;;;;;;;;;;5098265;28;19943;-80
2023/12/11 11:37:23;;;;;;;;;;;;;;;;;;5097288;28;20469;-80
2023/12/11 11:39:49;;;;;;;;;;;;;;;;;;5096284;28;19980;-80
2023/12/11 11:42:14;;;;;;;;;;;;;;;;;;5097510;28;20014;-81
2023/12/11 11:44:39;;;;;;;;;;;;;;;;;;5097116;28;19954;-81
2023/12/11 11:47:04;;;;;;;;;;;;;;;;;;5096728;28;20007;-81
2023/12/11 11:49:29;;;;;;;;;;;;;;;;;;5102627;28;20049;-81
2023/12/11 11:51:54;;;;;;;;;;;;;;;;;;5102745;28;20069;-81
2023/12/11 11:54:19;;;;;;;;;;;;;;;;;;5102198;28;19908;-80
2023/12/11 11:56:44;;;;;;;;;;;;;;;;;;5100904;28;19912;-80
2023/12/11 11:59:10;;;;;;;;;;;;;;;;;;5102469;28;19907;-80
2023/12/11 12:01:35;;;;;;;;;;;;;;;;;;5101707;28;20346;-81
2023/12/11 12:04:00;;;;;;;;;;;;;;;;;;5102134;28;19948;-81
2023/12/11 12:06:25;;;;;;;;;;;;;;;;;;5100353;28;19994;-81
2023/12/11 12:08:51;;;;;;;;;;;;;;;;;;5099881;28;19930;-80
2023/12/11 12:11:16;;;;;;;;;;;;;;;;;;5099754;28;19947;-81
2023/12/11 12:13:41;;;;;;;;;;;;;;;;;;5101432;28;20331;-80
2023/12/11 12:16:06;;;;;;;;;;;;;;;;;;5100891;28;19918;-80
2023/12/11 12:18:31;;;;;;;;;;;;;;;;;;5100984;28;19908;-81
2023/12/11 12:20:57;;;;;;;;;;;;;;;;;;5101669;28;19912;-80
2023/12/11 12:23:22;;;;;;;;;;;;;;;;;;5100943;28;19922;-81
2023/12/11 12:25:47;;;;;;;;;;;;;;;;;;5099676;28;19918;-81
2023/12/11 12:28:12;;;;;;;;;;;;;;;;;;5100136;28;19908;-81
2023/12/11 12:30:37;;;;;;;;;;;;;;;;;;5100049;28;20262;-81
2023/12/11 12:33:02;;;;;;;;;;;;;;;;;;5099592;28;20335;-80
2023/12/11 12:35:27;;;;;;;;;;;;;;;;;;5101677;28;19958;-81
2023/12/11 12:37:52;;;;;;;;;;;;;;;;;;5102347;28;19962;-81
2023/12/11 12:40:17;;;;;;;;;;;;;;;;;;5100498;28;20386;-82
2023/12/11 12:42:42;;;;;;;;;;;;;;;;;;5101635;28;19908;-81
2023/12/11 12:45:08;;;;;;;;;;;;;;;;;;5100616;28;19919;-82
2023/12/11 12:47:33;;;;;;;;;;;;;;;;;;5100808;28;19908;-81
2023/12/11 12:49:58;;;;;;;;;;;;;;;;;;5100271;28;19908;-81
2023/12/11 12:52:23;;;;;;;;;;;;;;;;;;5094000;28;19939;-81
2023/12/11 12:54:48;;;;;;;;;;;;;;;;;;5100760;28;20331;-82
2023/12/11 12:57:13;;;;;;;;;;;;;;;;;;5100576;28;19912;-81
2023/12/11 12:59:38;;;;;;;;;;;;;;;;;;5101171;28;19908;-81
2023/12/11 13:02:04;;;;;;;;;;;;;;;;;;5102022;28;19908;-81
2023/12/11 13:04:30;;;;;;;;;;;;;;;;;;5102098;28;19908;-81
2023/12/11 13:06:55;;;;;;;;;;;;;;;;;;5101390;28;19923;-81
2023/12/11 13:09:20;;;;;;;;;;;;;;;;;;5100610;28;19908;-81
2023/12/11 13:11:53;;;;;;;;;;;;;;;;;;5099864;28;19931;-82
2023/12/11 13:14:18;;;;;;;;;;;;;;;;;;5100509;28;20258;-82
2023/12/11 13:16:44;;;;;;;;;;;;;;;;;;5100302;28;19919;-81
2023/12/11 13:19:09;;;;;;;;;;;;;;;;;;5102414;28;19939;-81
2023/12/11 13:21:34;;;;;;;;;;;;;;;;;;5100615;28;19909;-81
2023/12/11 13:23:59;;;;;;;;;;;;;;;;;;5102278;28;19908;-81
2023/12/11 13:26:24;;;;;;;;;;;;;;;;;;5092517;28;19908;-82
2023/12/11 13:28:49;;;;;;;;;;;;;;;;;;5100436;28;19915;-81
2023/12/11 13:31:14;;;;;;;;;;;;;;;;;;5101130;28;19989;-82
2023/12/11 13:33:39;;;;;;;;;;;;;;;;;;5101205;28;19908;-80
2023/12/11 13:36:05;;;;;;;;;;;;;;;;;;5101471;28;19919;-81
2023/12/11 13:38:31;;;;;;;;;;;;;;;;;;5102891;28;19908;-81
2023/12/11 13:40:56;;;;;;;;;;;;;;;;;;5101390;28;19919;-81
2023/12/11 13:43:21;;;;;;;;;;;;;;;;;;5101456;28;19958;-81
2023/12/11 13:45:46;;;;;;;;;;;;;;;;;;5103067;28;19911;-81
2023/12/11 13:48:11;;;;;;;;;;;;;;;;;;5102831;28;19931;-81
2023/12/11 13:50:36;;;;;;;;;;;;;;;;;;5102507;28;19912;-82
2023/12/11 13:53:01;;;;;;;;;;;;;;;;;;5103527;28;19923;-81
2023/12/11 13:55:26;;;;;;;;;;;;;;;;;;5103351;28;20015;-81
2023/12/11 13:57:52;;;;;;;;;;;;;;;;;;5103570;28;19908;-81
2023/12/11 14:00:17;;;;;;;;;;;;;;;;;;5103491;28;19934;-81
2023/12/11 14:02:43;;;;;;;;;;;;;;;;;;5104423;28;20350;-80
2023/12/11 14:05:09;;;;;;;;;;;;;;;;;;5104151;28;19930;-81
2023/12/11 14:07:34;;;;;;;;;;;;;;;;;;5103443;28;20320;-81
2023/12/11 14:09:59;;;;;;;;;;;;;;;;;;5101284;28;19971;-81
2023/12/11 14:12:24;;;;;;;;;;;;;;;;;;5103933;28;19995;-81
2023/12/11 14:14:49;;;;;;;;;;;;;;;;;;5103992;28;19909;-82
2023/12/11 14:17:14;;;;;;;;;;;;;;;;;;5102771;28;19912;-81
2023/12/11 14:19:40;;;;;;;;;;;;;;;;;;5101800;28;19930;-82
2023/12/11 14:22:05;;;;;;;;;;;;;;;;;;5102047;28;19914;-81
2023/12/11 14:24:30;;;;;;;;;;;;;;;;;;5102705;28;19915;-81
2023/12/11 14:26:55;;;;;;;;;;;;;;;;;;5097338;28;19916;-81
2023/12/11 14:29:20;;;;;;;;;;;;;;;;;;5097271;28;19909;-80
2023/12/11 14:31:47;;;;;;;;;;;;;;;;;;5097263;28;20139;-80
2023/12/11 14:34:12;;;;;;;;;;;;;;;;;;5099297;28;19930;-81
2023/12/11 14:36:37;;;;;;;;;;;;;;;;;;5099039;28;19924;-81
2023/12/11 14:39:02;;;;;;;;;;;;;;;;;;5097125;28;19957;-81
2023/12/11 14:41:27;;;;;;;;;;;;;;;;;;5098764;28;19969;-81
2023/12/11 14:43:52;;;;;;;;;;;;;;;;;;5098341;28;19915;-81
2023/12/11 14:46:17;;;;;;;;;;;;;;;;;;5097848;28;19912;-80
2023/12/11 14:48:43;;;;;;;;;;;;;;;;;;5098411;28;19908;-81
2023/12/11 14:51:08;;;;;;;;;;;;;;;;;;5099158;28;19908;-81
2023/12/11 14:53:33;;;;;;;;;;;;;;;;;;5098149;28;19927;-81
2023/12/11 14:55:58;;;;;;;;;;;;;;;;;;5099301;28;19990;-80
2023/12/11 14:58:25;;;;;;;;;;;;;;;;;;5096810;28;21613;-81
2023/12/11 15:00:50;;;;;;;;;;;;;;;;;;5098338;28;19954;-80
2023/12/11 15:03:15;;;;;;;;;;;;;;;;;;5098540;28;19947;-80
2023/12/11 15:05:40;;;;;;;;;;;;;;;;;;5098421;28;19996;-80
2023/12/11 15:08:06;;;;;;;;;;;;;;;;;;5097966;28;19947;-80
2023/12/11 15:10:31;;;;;;;;;;;;;;;;;;5097896;28;19944;-80
2023/12/11 15:12:59;;;;;;;;;;;;;;;;;;5096440;28;20266;-80
2023/12/11 15:15:24;;;;;;;;;;;;;;;;;;5097457;28;19909;-81
2023/12/11 15:17:49;;;;;;;;;;;;;;;;;;5096075;28;19912;-81
2023/12/11 15:20:15;;;;;;;;;;;;;;;;;;5097396;28;20352;-81
2023/12/11 15:22:41;;;;;;;;;;;;;;;;;;5096440;28;19938;-81
2023/12/11 15:25:06;;;;;;;;;;;;;;;;;;5098959;28;19915;-80
2023/12/11 15:27:31;;;;;;;;;;;;;;;;;;5097787;28;20377;-81
2023/12/11 15:29:57;;;;;;;;;;;;;;;;;;5098506;28;19908;-81
2023/12/11 15:32:23;;;;;;;;;;;;;;;;;;5098887;28;19908;-80
2023/12/11 15:34:48;;;;;;;;;;;;;;;;;;5098677;28;19915;-80
2023/12/11 15:37:13;;;;;;;;;;;;;;;;;;5098666;28;20281;-80
2023/12/11 15:39:38;;;;;;;;;;;;;;;;;;5096795;28;20258;-80
2023/12/11 15:42:03;;;;;;;;;;;;;;;;;;5088455;28;19908;-81
2023/12/11 15:44:28;;;;;;;;;;;;;;;;;;5097292;28;20237;-80
2023/12/11 15:46:53;;;;;;;;;;;;;;;;;;5096725;28;20006;-81
2023/12/11 15:49:19;;;;;;;;;;;;;;;;;;5098370;28;19908;-81
2023/12/11 15:51:44;;;;;;;;;;;;;;;;;;5099015;28;20296;-82
2023/12/11 15:54:09;;;;;;;;;;;;;;;;;;5097956;28;20293;-82
2023/12/11 15:56:34;;;;;;;;;;;;;;;;;;5098695;28;19912;-81
2023/12/11 15:58:59;;;;;;;;;;;;;;;;;;5097857;28;19908;-80
2023/12/11 16:01:25;;;;;;;;;;;;;;;;;;5097387;28;20389;-80
2023/12/11 16:03:50;;;;;;;;;;;;;;;;;;5097678;28;19928;-82
2023/12/11 16:06:16;;;;;;;;;;;;;;;;;;5098390;28;19998;-81
2023/12/11 16:08:41;;;;;;;;;;;;;;;;;;5097080;28;19979;-80
2023/12/11 16:11:06;;;;;;;;;;;;;;;;;;5097293;28;20367;-80
2023/12/11 16:13:31;;;;;;;;;;;;;;;;;;5098583;28;19970;-80
2023/12/11 16:15:56;;;;;;;;;;;;;;;;;;5098510;28;20395;-81
2023/12/11 16:18:22;;;;;;;;;;;;;;;;;;5097283;28;19908;-81
2023/12/11 16:20:47;;;;;;;;;;;;;;;;;;5097098;28;20297;-81
2023/12/11 16:23:12;;;;;;;;;;;;;;;;;;5099411;28;20270;-77
2023/12/11 16:25:37;;;;;;;;;;;;;;;;;;5096073;28;19923;-80
2023/12/11 16:28:02;;;;;;;;;;;;;;;;;;5098896;28;20533;-80
2023/12/11 16:30:27;;;;;;;;;;;;;;;;;;5096229;28;19909;-80